createdAt,value
2023-07-24T00:00:07.885Z,95.39
2023-07-24T00:06:09.869Z,94.49
2023-07-24T00:12:11.973Z,95.18
2023-07-24T00:18:13.958Z,94.62
2023-07-24T00:24:16.040Z,94.86
2023-07-24T00:30:18.132Z,95.54
2023-07-24T00:36:20.395Z,94.20
2023-07-24T00:42:22.791Z,94.82
2023-07-24T00:48:25.188Z,95.70
2023-07-24T00:54:30.744Z,94.55
2023-07-24T01:00:33.620Z,94.79
2023-07-24T01:06:35.706Z,95.08
2023-07-24T01:12:50.125Z,95.62
2023-07-24T01:18:54.574Z,95.81
2023-07-24T01:25:24.329Z,95.60
2023-07-24T01:31:26.287Z,96.95
2023-07-24T01:37:29.065Z,97.42
2023-07-24T01:43:33.162Z,97.37
2023-07-24T01:49:35.247Z,97.22
2023-07-24T01:55:37.360Z,96.25
2023-07-24T02:01:39.303Z,97.82
2023-07-24T02:07:41.399Z,97.60
2023-07-24T02:13:46.269Z,97.70
2023-07-24T02:19:48.255Z,97.87
2023-07-24T02:25:54.250Z,98.04
2023-07-24T02:31:56.466Z,98.01
2023-07-24T02:37:58.429Z,98.22
2023-07-24T02:44:00.424Z,98.54
2023-07-24T02:50:02.374Z,98.79
2023-07-24T02:56:04.625Z,98.00
2023-07-24T03:02:06.663Z,99.08
2023-07-24T03:08:08.605Z,99.24
2023-07-24T03:14:10.668Z,99.10
2023-07-24T03:20:22.117Z,100.00
2023-07-24T03:26:24.089Z,100.00
2023-07-24T03:32:26.126Z,100.00
2023-07-24T03:38:28.105Z,100.00
2023-07-24T03:44:30.062Z,100.00
2023-07-24T03:50:32.069Z,100.00
2023-07-24T03:56:34.021Z,100.00
2023-07-24T04:02:36.049Z,100.00
2023-07-24T04:08:38.012Z,100.00
2023-07-24T04:14:39.998Z,100.00
2023-07-24T04:20:41.944Z,100.00
2023-07-24T04:26:43.988Z,100.00
2023-07-24T04:32:47.181Z,100.00
2023-07-24T04:38:49.160Z,100.00
2023-07-24T04:44:52.654Z,98.86
2023-07-24T04:50:58.570Z,97.45
2023-07-24T04:57:00.558Z,94.25
2023-07-24T05:03:02.719Z,91.33
2023-07-24T05:09:04.760Z,89.10
2023-07-24T05:15:07.449Z,89.01
2023-07-24T05:21:09.386Z,87.95
2023-07-24T05:27:11.393Z,89.11
2023-07-24T05:33:13.319Z,88.51
2023-07-24T05:39:15.273Z,87.60
2023-07-24T05:45:17.503Z,88.35
2023-07-24T05:51:19.437Z,87.79
2023-07-24T05:57:21.534Z,88.20
2023-07-24T06:03:25.249Z,86.79
2023-07-24T06:09:27.378Z,84.12
2023-07-24T06:15:29.525Z,83.62
2023-07-24T06:21:31.508Z,83.95
2023-07-24T06:27:33.520Z,83.71
2023-07-24T06:33:35.450Z,81.50
2023-07-24T06:39:37.380Z,80.05
2023-07-24T06:45:39.355Z,79.92
2023-07-24T06:51:41.336Z,78.72
2023-07-24T06:57:43.326Z,74.71
2023-07-24T07:03:45.266Z,72.69
2023-07-24T07:09:47.238Z,73.23
2023-07-24T07:15:49.219Z,71.46
2023-07-24T07:21:51.193Z,70.81
2023-07-24T07:27:53.169Z,73.50
2023-07-24T07:33:55.190Z,72.82
2023-07-24T07:39:57.139Z,70.87
2023-07-24T07:46:00.364Z,65.78
2023-07-24T07:52:02.313Z,62.97
2023-07-24T07:58:04.265Z,62.03
2023-07-24T08:04:06.488Z,61.29
2023-07-24T08:10:09.213Z,62.75
2023-07-24T08:16:19.831Z,61.21
2023-07-24T08:22:23.786Z,60.14
2023-07-24T08:28:25.782Z,60.47
2023-07-24T08:34:27.710Z,58.84
2023-07-24T08:40:29.663Z,58.97
2023-07-24T08:46:32.800Z,58.89
2023-07-24T08:52:36.866Z,58.88
2023-07-24T08:58:42.882Z,59.13
2023-07-24T09:04:44.814Z,58.52
2023-07-24T09:10:51.956Z,57.72
2023-07-24T09:17:08.303Z,57.34
2023-07-24T09:23:15.665Z,56.83
2023-07-24T09:29:20.845Z,56.87
2023-07-24T09:35:28.401Z,57.61
2023-07-24T09:41:32.554Z,56.78
2023-07-24T09:47:55.288Z,55.75
2023-07-24T09:54:07.768Z,53.07
2023-07-24T10:00:10.926Z,52.51
2023-07-24T10:06:15.883Z,51.25
2023-07-24T10:12:20.594Z,51.43
2023-07-24T10:18:29.036Z,52.97
2023-07-24T10:24:41.219Z,52.83
2023-07-24T10:30:45.143Z,52.47
2023-07-24T10:36:47.250Z,52.00
2023-07-24T10:43:06.722Z,52.60
2023-07-24T10:49:10.044Z,48.56
2023-07-24T10:55:11.994Z,49.15
2023-07-24T11:01:15.384Z,50.00
2023-07-24T11:07:17.573Z,49.74
2023-07-24T11:13:28.944Z,49.67
2023-07-24T11:19:30.994Z,49.82
2023-07-24T11:25:33.275Z,49.91
2023-07-24T11:31:41.606Z,48.93
2023-07-24T11:37:43.981Z,48.69
2023-07-24T11:43:51.860Z,49.20
2023-07-24T11:50:02.338Z,48.38
2023-07-24T11:56:16.671Z,49.98
2023-07-24T12:02:19.662Z,47.84
2023-07-24T12:08:30.830Z,47.21
2023-07-24T12:14:32.907Z,46.97
2023-07-24T12:20:35.874Z,45.01
2023-07-24T12:26:37.818Z,46.75
2023-07-24T12:32:39.752Z,48.24
2023-07-24T12:38:41.677Z,48.96
2023-07-24T12:44:44.845Z,47.11
2023-07-24T12:50:46.769Z,44.69
2023-07-24T12:56:48.958Z,43.80
2023-07-24T13:02:50.972Z,46.61
2023-07-24T13:08:53.022Z,46.77
2023-07-24T13:14:54.912Z,46.19
2023-07-24T13:20:57.953Z,43.19
2023-07-24T13:26:59.929Z,43.78
2023-07-24T13:33:01.862Z,44.24
2023-07-24T13:39:04.315Z,46.20
2023-07-24T13:45:07.030Z,47.80
2023-07-24T13:51:09.125Z,46.34
2023-07-24T13:57:11.015Z,41.58
2023-07-24T14:03:13.072Z,40.06
2023-07-24T14:09:15.046Z,41.42
2023-07-24T14:15:17.001Z,43.83
2023-07-24T14:21:19.613Z,46.58
2023-07-24T14:27:21.587Z,45.42
2023-07-24T14:33:23.657Z,50.80
2023-07-24T14:39:25.795Z,46.58
2023-07-24T14:45:28.025Z,49.10
2023-07-24T14:51:30.628Z,48.53
2023-07-24T14:57:33.608Z,88.23
2023-07-24T15:03:35.556Z,100.00
2023-07-24T15:09:37.494Z,100.00
2023-07-24T15:15:40.809Z,100.00
2023-07-24T15:21:42.899Z,100.00
2023-07-24T15:27:44.925Z,100.00
2023-07-24T15:33:46.898Z,100.00
2023-07-24T15:39:48.854Z,100.00
2023-07-24T15:45:51.231Z,100.00
2023-07-24T15:51:53.207Z,100.00
2023-07-24T15:57:55.462Z,100.00
2023-07-24T16:03:57.440Z,100.00
2023-07-24T16:10:00.488Z,100.00
2023-07-24T16:16:02.628Z,96.61
2023-07-24T16:22:04.918Z,93.56
2023-07-24T16:28:06.927Z,88.14
2023-07-24T16:34:09.380Z,89.60
2023-07-24T16:40:12.195Z,89.55
2023-07-24T16:52:19.038Z,92.47
2023-07-24T16:58:21.038Z,91.45
2023-07-24T17:04:22.960Z,92.50
2023-07-24T17:10:25.038Z,93.54
2023-07-24T17:16:27.032Z,95.27
2023-07-24T17:22:29.031Z,96.43
2023-07-24T17:28:31.416Z,96.02
2023-07-24T17:34:33.387Z,99.31
2023-07-24T17:40:37.933Z,98.84
2023-07-24T17:46:39.914Z,95.63
2023-07-24T17:52:42.027Z,95.62
2023-07-24T17:58:44.922Z,96.88
2023-07-24T18:04:46.878Z,98.35
2023-07-24T18:10:48.879Z,99.33
2023-07-24T18:16:50.879Z,98.86
2023-07-24T18:22:53.986Z,93.29
2023-07-24T18:28:56.313Z,95.81
2023-07-24T18:34:58.896Z,96.55
2023-07-24T18:41:00.982Z,97.69
2023-07-24T18:47:03.044Z,100.00
2023-07-24T18:53:04.996Z,100.00
2023-07-24T18:59:07.017Z,100.00
2023-07-24T19:05:09.359Z,100.00
2023-07-24T19:11:11.366Z,100.00
2023-07-24T19:17:13.330Z,100.00
2023-07-24T19:23:15.281Z,100.00
2023-07-24T19:29:17.440Z,100.00
2023-07-24T19:35:20.524Z,100.00
2023-07-24T19:41:22.597Z,100.00
2023-07-24T19:47:24.610Z,100.00
2023-07-24T19:53:27.179Z,100.00
2023-07-24T19:59:29.217Z,100.00
2023-07-24T20:05:31.244Z,100.00
2023-07-24T20:11:33.365Z,100.00
2023-07-24T20:17:35.574Z,100.00
2023-07-24T20:23:37.683Z,100.00
2023-07-24T20:29:39.790Z,100.00
2023-07-24T20:35:42.323Z,100.00
2023-07-24T20:41:46.093Z,100.00
2023-07-24T20:47:48.158Z,100.00
2023-07-24T20:53:52.625Z,100.00
2023-07-24T20:59:54.620Z,100.00
2023-07-24T21:05:56.596Z,100.00
2023-07-24T21:11:59.891Z,100.00
2023-07-24T21:18:03.973Z,100.00
2023-07-24T21:24:08.862Z,100.00
2023-07-24T21:30:11.594Z,100.00
2023-07-24T21:36:17.337Z,100.00
2023-07-24T21:42:19.349Z,100.00
2023-07-24T21:48:28.978Z,100.00
2023-07-24T21:54:38.331Z,100.00
2023-07-24T22:00:51.943Z,100.00
2023-07-24T22:06:58.189Z,100.00
2023-07-24T22:13:18.981Z,100.00
2023-07-24T22:19:23.051Z,100.00
2023-07-24T22:25:25.141Z,100.00
2023-07-24T22:31:29.292Z,100.00
2023-07-24T22:37:40.649Z,100.00
2023-07-24T22:43:42.678Z,100.00
2023-07-24T22:49:44.651Z,100.00
2023-07-24T22:55:46.682Z,100.00
2023-07-24T23:01:50.896Z,100.00
2023-07-24T23:07:55.984Z,100.00
2023-07-24T23:13:58.318Z,100.00
2023-07-24T23:20:00.945Z,100.00
2023-07-24T23:26:04.290Z,100.00
2023-07-24T23:32:07.031Z,100.00
2023-07-24T23:38:09.000Z,100.00
2023-07-24T23:44:10.990Z,100.00
2023-07-24T23:50:13.763Z,100.00
2023-07-24T23:56:16.360Z,100.00
